sensor_id;sensor_type;location;lat;lon;timestamp;temperature;humidity
14236;DHT22;7202;50.718;7.072;2022-09-12T00:01:34;14.10;99.90
14236;DHT22;7202;50.718;7.072;2022-09-12T00:04:03;14.10;99.90
14236;DHT22;7202;50.718;7.072;2022-09-12T00:06:34;14.10;99.90
14236;DHT22;7202;50.718;7.072;2022-09-12T00:09:05;14.10;99.90
14236;DHT22;7202;50.718;7.072;2022-09-12T00:11:34;14.10;99.90
14236;DHT22;7202;50.718;7.072;2022-09-12T00:14:06;14.10;99.90
14236;DHT22;7202;50.718;7.072;2022-09-12T00:16:35;14.10;99.90
14236;DHT22;7202;50.718;7.072;2022-09-12T00:19:05;14.00;99.90
14236;DHT22;7202;50.718;7.072;2022-09-12T00:21:36;14.00;99.90
14236;DHT22;7202;50.718;7.072;2022-09-12T00:24:05;14.00;99.90
14236;DHT22;7202;50.718;7.072;2022-09-12T00:26:34;14.00;99.90
14236;DHT22;7202;50.718;7.072;2022-09-12T00:29:03;14.00;99.90
14236;DHT22;7202;50.718;7.072;2022-09-12T00:31:33;13.90;99.90
14236;DHT22;7202;50.718;7.072;2022-09-12T00:34:01;13.90;99.90
14236;DHT22;7202;50.718;7.072;2022-09-12T00:36:30;13.90;99.90
14236;DHT22;7202;50.718;7.072;2022-09-12T00:38:59;13.80;99.90
14236;DHT22;7202;50.718;7.072;2022-09-12T00:41:29;13.80;99.90
14236;DHT22;7202;50.718;7.072;2022-09-12T00:43:59;13.80;99.90
14236;DHT22;7202;50.718;7.072;2022-09-12T00:46:35;13.80;99.90
14236;DHT22;7202;50.718;7.072;2022-09-12T00:49:11;13.80;99.90
14236;DHT22;7202;50.718;7.072;2022-09-12T00:51:43;13.80;99.90
14236;DHT22;7202;50.718;7.072;2022-09-12T00:54:18;13.70;99.90
14236;DHT22;7202;50.718;7.072;2022-09-12T00:56:50;13.70;99.90
14236;DHT22;7202;50.718;7.072;2022-09-12T00:59:23;13.70;99.90
14236;DHT22;7202;50.718;7.072;2022-09-12T01:01:55;13.70;99.90
14236;DHT22;7202;50.718;7.072;2022-09-12T01:04:25;13.70;99.90
14236;DHT22;7202;50.718;7.072;2022-09-12T01:06:56;13.70;99.90
14236;DHT22;7202;50.718;7.072;2022-09-12T01:09:25;13.70;99.90
14236;DHT22;7202;50.718;7.072;2022-09-12T01:11:54;13.60;99.90
14236;DHT22;7202;50.718;7.072;2022-09-12T01:14:23;13.60;99.90
14236;DHT22;7202;50.718;7.072;2022-09-12T01:16:53;13.60;99.90
14236;DHT22;7202;50.718;7.072;2022-09-12T01:22:49;13.60;99.90
14236;DHT22;7202;50.718;7.072;2022-09-12T01:25:26;13.50;99.90
14236;DHT22;7202;50.718;7.072;2022-09-12T01:28:12;13.50;99.90
14236;DHT22;7202;50.718;7.072;2022-09-12T01:30:48;13.50;99.90
14236;DHT22;7202;50.718;7.072;2022-09-12T01:33:30;13.50;99.90
14236;DHT22;7202;50.718;7.072;2022-09-12T01:36:19;13.50;99.90
14236;DHT22;7202;50.718;7.072;2022-09-12T01:38:55;13.50;99.90
14236;DHT22;7202;50.718;7.072;2022-09-12T01:41:29;13.50;99.90
14236;DHT22;7202;50.718;7.072;2022-09-12T01:44:02;13.50;99.90
14236;DHT22;7202;50.718;7.072;2022-09-12T01:46:41;13.50;99.90
14236;DHT22;7202;50.718;7.072;2022-09-12T01:49:16;13.50;99.90
14236;DHT22;7202;50.718;7.072;2022-09-12T01:51:52;13.40;99.90
14236;DHT22;7202;50.718;7.072;2022-09-12T01:54:29;13.40;99.90
14236;DHT22;7202;50.718;7.072;2022-09-12T01:57:03;13.40;99.90
14236;DHT22;7202;50.718;7.072;2022-09-12T01:59:36;13.40;99.90
14236;DHT22;7202;50.718;7.072;2022-09-12T02:02:12;13.40;99.90
14236;DHT22;7202;50.718;7.072;2022-09-12T02:04:46;13.40;99.90
14236;DHT22;7202;50.718;7.072;2022-09-12T02:07:20;13.40;99.90
14236;DHT22;7202;50.718;7.072;2022-09-12T02:09:54;13.40;99.90
14236;DHT22;7202;50.718;7.072;2022-09-12T02:12:27;13.40;99.90
14236;DHT22;7202;50.718;7.072;2022-09-12T02:15:00;13.30;99.90
14236;DHT22;7202;50.718;7.072;2022-09-12T02:17:36;13.30;99.90
14236;DHT22;7202;50.718;7.072;2022-09-12T02:20:09;13.30;99.90
14236;DHT22;7202;50.718;7.072;2022-09-12T02:23:02;13.30;99.90
14236;DHT22;7202;50.718;7.072;2022-09-12T02:25:37;13.30;99.90
14236;DHT22;7202;50.718;7.072;2022-09-12T02:28:12;13.30;99.90
14236;DHT22;7202;50.718;7.072;2022-09-12T02:30:44;13.30;99.90
14236;DHT22;7202;50.718;7.072;2022-09-12T02:33:22;13.30;99.90
14236;DHT22;7202;50.718;7.072;2022-09-12T02:35:58;13.20;99.90
14236;DHT22;7202;50.718;7.072;2022-09-12T02:38:36;13.20;99.90
14236;DHT22;7202;50.718;7.072;2022-09-12T02:41:06;13.20;99.90
14236;DHT22;7202;50.718;7.072;2022-09-12T02:43:35;13.20;99.90
14236;DHT22;7202;50.718;7.072;2022-09-12T02:46:07;13.10;99.90
14236;DHT22;7202;50.718;7.072;2022-09-12T02:48:41;13.10;99.90
14236;DHT22;7202;50.718;7.072;2022-09-12T02:51:11;13.10;99.90
14236;DHT22;7202;50.718;7.072;2022-09-12T02:53:40;13.10;99.90
14236;DHT22;7202;50.718;7.072;2022-09-12T02:56:13;13.10;99.90
14236;DHT22;7202;50.718;7.072;2022-09-12T02:58:45;13.10;99.90
14236;DHT22;7202;50.718;7.072;2022-09-12T03:01:25;13.10;99.90
14236;DHT22;7202;50.718;7.072;2022-09-12T03:04:15;13.10;99.90
14236;DHT22;7202;50.718;7.072;2022-09-12T03:06:52;13.10;99.90
14236;DHT22;7202;50.718;7.072;2022-09-12T03:09:29;13.00;99.90
14236;DHT22;7202;50.718;7.072;2022-09-12T03:12:10;13.10;99.90
14236;DHT22;7202;50.718;7.072;2022-09-12T03:14:51;13.00;99.90
14236;DHT22;7202;50.718;7.072;2022-09-12T03:17:48;13.00;99.90
14236;DHT22;7202;50.718;7.072;2022-09-12T03:20:29;13.00;99.90
14236;DHT22;7202;50.718;7.072;2022-09-12T03:23:04;12.90;99.90
14236;DHT22;7202;50.718;7.072;2022-09-12T03:25:40;12.90;99.90
14236;DHT22;7202;50.718;7.072;2022-09-12T03:28:13;12.90;99.90
14236;DHT22;7202;50.718;7.072;2022-09-12T03:30:44;12.90;99.90
14236;DHT22;7202;50.718;7.072;2022-09-12T03:33:15;12.90;99.90
14236;DHT22;7202;50.718;7.072;2022-09-12T03:35:46;12.90;99.90
14236;DHT22;7202;50.718;7.072;2022-09-12T03:38:15;12.90;99.90
14236;DHT22;7202;50.718;7.072;2022-09-12T03:40:44;12.90;99.90
14236;DHT22;7202;50.718;7.072;2022-09-12T03:43:20;12.90;99.90
14236;DHT22;7202;50.718;7.072;2022-09-12T03:45:50;12.90;99.90
14236;DHT22;7202;50.718;7.072;2022-09-12T03:48:19;12.90;99.90
14236;DHT22;7202;50.718;7.072;2022-09-12T03:50:49;12.90;99.90
14236;DHT22;7202;50.718;7.072;2022-09-12T03:53:18;12.80;99.90
14236;DHT22;7202;50.718;7.072;2022-09-12T03:55:46;12.80;99.90
14236;DHT22;7202;50.718;7.072;2022-09-12T03:58:15;12.80;99.90
14236;DHT22;7202;50.718;7.072;2022-09-12T04:00:44;12.80;99.90
14236;DHT22;7202;50.718;7.072;2022-09-12T04:03:13;12.80;99.90
14236;DHT22;7202;50.718;7.072;2022-09-12T04:05:42;12.80;99.90
14236;DHT22;7202;50.718;7.072;2022-09-12T04:08:12;12.80;99.90
14236;DHT22;7202;50.718;7.072;2022-09-12T04:10:40;12.80;99.90
14236;DHT22;7202;50.718;7.072;2022-09-12T04:13:09;12.80;99.90
14236;DHT22;7202;50.718;7.072;2022-09-12T04:15:37;12.70;99.90
14236;DHT22;7202;50.718;7.072;2022-09-12T04:18:06;12.70;99.90
14236;DHT22;7202;50.718;7.072;2022-09-12T04:20:35;12.70;99.90
14236;DHT22;7202;50.718;7.072;2022-09-12T04:23:03;12.70;99.90
14236;DHT22;7202;50.718;7.072;2022-09-12T04:25:33;12.70;99.90
14236;DHT22;7202;50.718;7.072;2022-09-12T04:28:02;12.70;99.90
14236;DHT22;7202;50.718;7.072;2022-09-12T04:30:32;12.60;99.90
14236;DHT22;7202;50.718;7.072;2022-09-12T04:33:01;12.60;99.90
14236;DHT22;7202;50.718;7.072;2022-09-12T04:35:34;12.60;99.90
14236;DHT22;7202;50.718;7.072;2022-09-12T04:38:03;12.50;99.90
14236;DHT22;7202;50.718;7.072;2022-09-12T04:40:32;12.50;99.90
14236;DHT22;7202;50.718;7.072;2022-09-12T04:43:02;12.50;99.90
14236;DHT22;7202;50.718;7.072;2022-09-12T04:45:31;12.50;99.90
14236;DHT22;7202;50.718;7.072;2022-09-12T04:48:00;12.50;99.90
14236;DHT22;7202;50.718;7.072;2022-09-12T04:50:29;12.50;99.90
14236;DHT22;7202;50.718;7.072;2022-09-12T04:52:58;12.50;99.90
14236;DHT22;7202;50.718;7.072;2022-09-12T04:55:26;12.50;99.90
14236;DHT22;7202;50.718;7.072;2022-09-12T04:57:55;12.50;99.90
14236;DHT22;7202;50.718;7.072;2022-09-12T05:00:25;12.50;99.90
14236;DHT22;7202;50.718;7.072;2022-09-12T05:02:53;12.50;99.90
14236;DHT22;7202;50.718;7.072;2022-09-12T05:05:22;12.50;99.90
14236;DHT22;7202;50.718;7.072;2022-09-12T05:07:50;12.50;99.90
14236;DHT22;7202;50.718;7.072;2022-09-12T05:10:19;12.50;99.90
14236;DHT22;7202;50.718;7.072;2022-09-12T05:12:50;12.50;99.90
14236;DHT22;7202;50.718;7.072;2022-09-12T05:15:18;12.40;99.90
14236;DHT22;7202;50.718;7.072;2022-09-12T05:17:48;12.40;99.90
14236;DHT22;7202;50.718;7.072;2022-09-12T05:20:17;12.40;99.90
14236;DHT22;7202;50.718;7.072;2022-09-12T05:22:45;12.40;99.90
14236;DHT22;7202;50.718;7.072;2022-09-12T05:25:14;12.40;99.90
14236;DHT22;7202;50.718;7.072;2022-09-12T05:27:43;12.40;99.90
14236;DHT22;7202;50.718;7.072;2022-09-12T05:30:16;12.40;99.90
14236;DHT22;7202;50.718;7.072;2022-09-12T05:32:45;12.50;99.90
14236;DHT22;7202;50.718;7.072;2022-09-12T05:35:15;12.50;99.90
14236;DHT22;7202;50.718;7.072;2022-09-12T05:37:44;12.50;99.90
14236;DHT22;7202;50.718;7.072;2022-09-12T05:40:13;12.50;99.90
14236;DHT22;7202;50.718;7.072;2022-09-12T05:42:44;12.50;99.90
14236;DHT22;7202;50.718;7.072;2022-09-12T05:45:12;12.50;99.90
14236;DHT22;7202;50.718;7.072;2022-09-12T05:47:41;12.60;99.90
14236;DHT22;7202;50.718;7.072;2022-09-12T05:50:10;12.60;99.90
14236;DHT22;7202;50.718;7.072;2022-09-12T05:52:40;12.60;99.90
14236;DHT22;7202;50.718;7.072;2022-09-12T05:55:09;12.60;99.90
14236;DHT22;7202;50.718;7.072;2022-09-12T05:57:37;12.60;99.90
14236;DHT22;7202;50.718;7.072;2022-09-12T06:00:07;12.70;99.90
14236;DHT22;7202;50.718;7.072;2022-09-12T06:02:39;12.80;99.90
14236;DHT22;7202;50.718;7.072;2022-09-12T06:05:08;12.80;99.90
14236;DHT22;7202;50.718;7.072;2022-09-12T06:07:37;12.90;99.90
14236;DHT22;7202;50.718;7.072;2022-09-12T06:10:07;12.90;99.90
14236;DHT22;7202;50.718;7.072;2022-09-12T06:12:36;13.00;99.90
14236;DHT22;7202;50.718;7.072;2022-09-12T06:15:05;13.10;99.90
14236;DHT22;7202;50.718;7.072;2022-09-12T06:17:34;13.20;99.90
14236;DHT22;7202;50.718;7.072;2022-09-12T06:20:03;13.20;99.90
14236;DHT22;7202;50.718;7.072;2022-09-12T06:22:31;13.30;99.90
14236;DHT22;7202;50.718;7.072;2022-09-12T06:25:00;13.40;99.90
14236;DHT22;7202;50.718;7.072;2022-09-12T06:27:30;13.50;99.90
14236;DHT22;7202;50.718;7.072;2022-09-12T06:29:59;13.50;99.90
14236;DHT22;7202;50.718;7.072;2022-09-12T06:32:29;13.50;99.90
14236;DHT22;7202;50.718;7.072;2022-09-12T06:34:57;13.50;99.90
14236;DHT22;7202;50.718;7.072;2022-09-12T06:37:26;13.60;99.90
14236;DHT22;7202;50.718;7.072;2022-09-12T06:39:54;13.70;99.90
14236;DHT22;7202;50.718;7.072;2022-09-12T06:42:23;13.70;99.90
14236;DHT22;7202;50.718;7.072;2022-09-12T06:44:57;13.80;99.90
14236;DHT22;7202;50.718;7.072;2022-09-12T06:47:26;13.80;99.90
14236;DHT22;7202;50.718;7.072;2022-09-12T06:49:54;13.90;99.90
14236;DHT22;7202;50.718;7.072;2022-09-12T06:52:23;13.90;99.90
14236;DHT22;7202;50.718;7.072;2022-09-12T06:54:51;14.00;99.90
14236;DHT22;7202;50.718;7.072;2022-09-12T06:57:20;14.00;99.90
14236;DHT22;7202;50.718;7.072;2022-09-12T06:59:49;14.10;99.90
14236;DHT22;7202;50.718;7.072;2022-09-12T07:02:19;14.20;99.90
14236;DHT22;7202;50.718;7.072;2022-09-12T07:04:47;14.30;99.90
14236;DHT22;7202;50.718;7.072;2022-09-12T07:07:17;14.40;99.90
14236;DHT22;7202;50.718;7.072;2022-09-12T07:09:46;14.40;99.90
14236;DHT22;7202;50.718;7.072;2022-09-12T07:12:15;14.50;99.90
14236;DHT22;7202;50.718;7.072;2022-09-12T07:14:44;14.60;99.90
14236;DHT22;7202;50.718;7.072;2022-09-12T07:17:12;14.70;99.90
14236;DHT22;7202;50.718;7.072;2022-09-12T07:19:42;14.80;99.90
14236;DHT22;7202;50.718;7.072;2022-09-12T07:22:11;14.90;99.90
14236;DHT22;7202;50.718;7.072;2022-09-12T07:24:40;15.00;99.90
14236;DHT22;7202;50.718;7.072;2022-09-12T07:27:08;15.10;99.90
14236;DHT22;7202;50.718;7.072;2022-09-12T07:29:37;15.30;99.90
14236;DHT22;7202;50.718;7.072;2022-09-12T07:32:06;15.40;99.90
14236;DHT22;7202;50.718;7.072;2022-09-12T07:34:35;15.50;99.90
14236;DHT22;7202;50.718;7.072;2022-09-12T07:37:05;15.60;99.90
14236;DHT22;7202;50.718;7.072;2022-09-12T07:39:33;15.70;99.90
14236;DHT22;7202;50.718;7.072;2022-09-12T07:42:02;15.80;99.90
14236;DHT22;7202;50.718;7.072;2022-09-12T07:44:31;15.80;99.90
14236;DHT22;7202;50.718;7.072;2022-09-12T07:46:59;16.00;99.90
14236;DHT22;7202;50.718;7.072;2022-09-12T07:49:28;16.00;99.90
14236;DHT22;7202;50.718;7.072;2022-09-12T07:51:56;16.10;99.90
14236;DHT22;7202;50.718;7.072;2022-09-12T07:54:26;16.20;99.90
14236;DHT22;7202;50.718;7.072;2022-09-12T07:56:55;16.20;99.90
14236;DHT22;7202;50.718;7.072;2022-09-12T07:59:24;16.30;99.90
14236;DHT22;7202;50.718;7.072;2022-09-12T08:02:13;16.30;99.90
14236;DHT22;7202;50.718;7.072;2022-09-12T08:04:45;16.40;99.90
14236;DHT22;7202;50.718;7.072;2022-09-12T08:07:14;16.40;99.90
14236;DHT22;7202;50.718;7.072;2022-09-12T08:09:46;16.50;99.90
14236;DHT22;7202;50.718;7.072;2022-09-12T08:12:15;16.60;99.90
14236;DHT22;7202;50.718;7.072;2022-09-12T08:14:43;16.70;99.90
14236;DHT22;7202;50.718;7.072;2022-09-12T08:17:12;16.80;99.90
14236;DHT22;7202;50.718;7.072;2022-09-12T08:19:41;17.00;99.90
14236;DHT22;7202;50.718;7.072;2022-09-12T08:22:11;17.10;99.90
14236;DHT22;7202;50.718;7.072;2022-09-12T08:24:40;17.20;99.90
14236;DHT22;7202;50.718;7.072;2022-09-12T08:27:10;17.30;99.90
14236;DHT22;7202;50.718;7.072;2022-09-12T08:29:38;17.40;99.90
14236;DHT22;7202;50.718;7.072;2022-09-12T08:32:07;17.40;99.90
14236;DHT22;7202;50.718;7.072;2022-09-12T08:34:36;17.50;99.90
14236;DHT22;7202;50.718;7.072;2022-09-12T08:37:04;17.50;99.90
14236;DHT22;7202;50.718;7.072;2022-09-12T08:39:33;17.70;99.90
14236;DHT22;7202;50.718;7.072;2022-09-12T08:42:03;17.80;99.90
14236;DHT22;7202;50.718;7.072;2022-09-12T08:44:58;17.90;99.90
14236;DHT22;7202;50.718;7.072;2022-09-12T08:47:36;18.00;99.90
14236;DHT22;7202;50.718;7.072;2022-09-12T08:50:13;18.10;99.90
14236;DHT22;7202;50.718;7.072;2022-09-12T08:52:52;18.20;99.90
14236;DHT22;7202;50.718;7.072;2022-09-12T08:55:30;18.30;99.90
14236;DHT22;7202;50.718;7.072;2022-09-12T08:58:00;18.40;99.90
14236;DHT22;7202;50.718;7.072;2022-09-12T09:00:37;18.50;99.90
14236;DHT22;7202;50.718;7.072;2022-09-12T09:03:25;18.70;99.90
14236;DHT22;7202;50.718;7.072;2022-09-12T09:06:02;18.80;99.90
14236;DHT22;7202;50.718;7.072;2022-09-12T09:08:44;18.90;99.90
14236;DHT22;7202;50.718;7.072;2022-09-12T09:11:23;18.90;99.90
14236;DHT22;7202;50.718;7.072;2022-09-12T09:14:03;19.00;99.90
14236;DHT22;7202;50.718;7.072;2022-09-12T09:16:56;19.00;99.90
14236;DHT22;7202;50.718;7.072;2022-09-12T09:19:27;19.10;99.90
14236;DHT22;7202;50.718;7.072;2022-09-12T09:21:58;19.10;99.90
14236;DHT22;7202;50.718;7.072;2022-09-12T09:24:33;19.10;99.90
14236;DHT22;7202;50.718;7.072;2022-09-12T09:27:08;19.20;99.90
14236;DHT22;7202;50.718;7.072;2022-09-12T09:29:59;19.30;99.90
14236;DHT22;7202;50.718;7.072;2022-09-12T09:32:33;19.30;99.90
14236;DHT22;7202;50.718;7.072;2022-09-12T09:35:13;19.40;99.90
14236;DHT22;7202;50.718;7.072;2022-09-12T09:37:46;19.50;99.90
14236;DHT22;7202;50.718;7.072;2022-09-12T09:40:31;19.50;99.90
14236;DHT22;7202;50.718;7.072;2022-09-12T09:43:07;19.70;99.90
14236;DHT22;7202;50.718;7.072;2022-09-12T09:45:42;19.80;99.90
14236;DHT22;7202;50.718;7.072;2022-09-12T09:48:21;19.90;99.90
14236;DHT22;7202;50.718;7.072;2022-09-12T09:50:51;20.00;99.90
14236;DHT22;7202;50.718;7.072;2022-09-12T09:53:31;20.10;99.90
14236;DHT22;7202;50.718;7.072;2022-09-12T09:56:06;20.30;99.90
14236;DHT22;7202;50.718;7.072;2022-09-12T09:58:36;20.30;99.90
14236;DHT22;7202;50.718;7.072;2022-09-12T10:01:11;20.50;99.90
14236;DHT22;7202;50.718;7.072;2022-09-12T10:03:49;20.60;99.90
14236;DHT22;7202;50.718;7.072;2022-09-12T10:06:25;20.60;99.90
14236;DHT22;7202;50.718;7.072;2022-09-12T10:09:16;20.70;99.90
14236;DHT22;7202;50.718;7.072;2022-09-12T10:11:46;20.80;99.90
14236;DHT22;7202;50.718;7.072;2022-09-12T10:14:34;20.90;99.90
14236;DHT22;7202;50.718;7.072;2022-09-12T10:17:23;21.00;99.90
14236;DHT22;7202;50.718;7.072;2022-09-12T10:19:54;21.10;99.90
14236;DHT22;7202;50.718;7.072;2022-09-12T10:22:46;21.10;99.90
14236;DHT22;7202;50.718;7.072;2022-09-12T10:25:17;21.20;99.90
14236;DHT22;7202;50.718;7.072;2022-09-12T10:27:52;21.30;99.90
14236;DHT22;7202;50.718;7.072;2022-09-12T10:30:21;21.40;99.90
14236;DHT22;7202;50.718;7.072;2022-09-12T10:32:51;21.40;99.90
14236;DHT22;7202;50.718;7.072;2022-09-12T10:35:23;21.50;99.90
14236;DHT22;7202;50.718;7.072;2022-09-12T10:37:54;21.50;99.90
14236;DHT22;7202;50.718;7.072;2022-09-12T10:40:26;21.60;99.90
14236;DHT22;7202;50.718;7.072;2022-09-12T10:42:56;21.60;99.90
14236;DHT22;7202;50.718;7.072;2022-09-12T10:45:27;21.80;99.90
14236;DHT22;7202;50.718;7.072;2022-09-12T10:47:58;21.80;99.90
14236;DHT22;7202;50.718;7.072;2022-09-12T10:50:38;21.80;99.90
14236;DHT22;7202;50.718;7.072;2022-09-12T10:53:18;21.80;99.90
14236;DHT22;7202;50.718;7.072;2022-09-12T10:56:02;21.80;99.90
14236;DHT22;7202;50.718;7.072;2022-09-12T10:58:45;21.90;99.90
14236;DHT22;7202;50.718;7.072;2022-09-12T11:01:34;21.90;99.90
14236;DHT22;7202;50.718;7.072;2022-09-12T11:04:21;22.00;99.90
14236;DHT22;7202;50.718;7.072;2022-09-12T11:07:01;22.00;99.90
14236;DHT22;7202;50.718;7.072;2022-09-12T11:09:37;22.10;99.90
14236;DHT22;7202;50.718;7.072;2022-09-12T11:12:13;22.10;99.90
14236;DHT22;7202;50.718;7.072;2022-09-12T11:14:54;22.10;99.90
14236;DHT22;7202;50.718;7.072;2022-09-12T11:17:29;22.20;99.90
14236;DHT22;7202;50.718;7.072;2022-09-12T11:20:35;22.20;99.90
14236;DHT22;7202;50.718;7.072;2022-09-12T11:23:33;22.30;99.90
14236;DHT22;7202;50.718;7.072;2022-09-12T11:26:15;22.40;99.90
14236;DHT22;7202;50.718;7.072;2022-09-12T11:28:51;22.40;99.90
14236;DHT22;7202;50.718;7.072;2022-09-12T11:31:39;22.50;99.90
14236;DHT22;7202;50.718;7.072;2022-09-12T11:34:10;22.60;99.90
14236;DHT22;7202;50.718;7.072;2022-09-12T11:37:06;22.60;99.90
14236;DHT22;7202;50.718;7.072;2022-09-12T11:39:46;22.70;99.90
14236;DHT22;7202;50.718;7.072;2022-09-12T11:42:27;22.80;99.90
14236;DHT22;7202;50.718;7.072;2022-09-12T11:45:01;22.80;99.90
14236;DHT22;7202;50.718;7.072;2022-09-12T11:47:33;22.90;99.90
14236;DHT22;7202;50.718;7.072;2022-09-12T11:50:19;22.90;99.90
14236;DHT22;7202;50.718;7.072;2022-09-12T11:52:50;23.00;99.90
14236;DHT22;7202;50.718;7.072;2022-09-12T11:55:23;23.00;99.90
14236;DHT22;7202;50.718;7.072;2022-09-12T11:57:55;23.10;99.90
14236;DHT22;7202;50.718;7.072;2022-09-12T12:00:27;23.20;99.90
14236;DHT22;7202;50.718;7.072;2022-09-12T12:03:03;23.20;99.90
14236;DHT22;7202;50.718;7.072;2022-09-12T12:05:39;23.20;99.90
14236;DHT22;7202;50.718;7.072;2022-09-12T12:08:09;23.30;99.90
14236;DHT22;7202;50.718;7.072;2022-09-12T12:10:40;23.30;99.90
14236;DHT22;7202;50.718;7.072;2022-09-12T12:13:22;23.40;99.90
14236;DHT22;7202;50.718;7.072;2022-09-12T12:15:57;23.50;99.90
14236;DHT22;7202;50.718;7.072;2022-09-12T12:18:28;23.60;99.90
14236;DHT22;7202;50.718;7.072;2022-09-12T12:21:19;23.60;99.90
14236;DHT22;7202;50.718;7.072;2022-09-12T12:24:15;23.70;99.90
14236;DHT22;7202;50.718;7.072;2022-09-12T12:26:56;23.70;99.90
14236;DHT22;7202;50.718;7.072;2022-09-12T12:29:52;23.70;99.90
14236;DHT22;7202;50.718;7.072;2022-09-12T12:32:23;23.80;99.90
14236;DHT22;7202;50.718;7.072;2022-09-12T12:35:37;23.90;99.90
14236;DHT22;7202;50.718;7.072;2022-09-12T12:38:25;23.90;99.90
14236;DHT22;7202;50.718;7.072;2022-09-12T12:44:49;24.00;99.90
14236;DHT22;7202;50.718;7.072;2022-09-12T12:47:21;24.00;99.90
14236;DHT22;7202;50.718;7.072;2022-09-12T12:49:53;24.10;99.90
14236;DHT22;7202;50.718;7.072;2022-09-12T12:52:24;24.10;99.90
14236;DHT22;7202;50.718;7.072;2022-09-12T12:54:56;24.10;99.90
14236;DHT22;7202;50.718;7.072;2022-09-12T12:57:39;24.20;99.90
14236;DHT22;7202;50.718;7.072;2022-09-12T13:00:32;24.20;99.90
14236;DHT22;7202;50.718;7.072;2022-09-12T13:03:08;24.30;99.90
14236;DHT22;7202;50.718;7.072;2022-09-12T13:05:39;24.30;99.90
14236;DHT22;7202;50.718;7.072;2022-09-12T13:08:17;24.40;99.90
14236;DHT22;7202;50.718;7.072;2022-09-12T13:10:53;24.40;99.90
14236;DHT22;7202;50.718;7.072;2022-09-12T13:13:26;24.40;99.90
14236;DHT22;7202;50.718;7.072;2022-09-12T13:15:57;24.40;99.90
14236;DHT22;7202;50.718;7.072;2022-09-12T13:18:27;24.40;99.90
14236;DHT22;7202;50.718;7.072;2022-09-12T13:21:06;24.40;99.90
14236;DHT22;7202;50.718;7.072;2022-09-12T13:23:36;24.40;99.90
14236;DHT22;7202;50.718;7.072;2022-09-12T13:26:11;24.50;99.90
14236;DHT22;7202;50.718;7.072;2022-09-12T13:28:39;24.60;99.90
14236;DHT22;7202;50.718;7.072;2022-09-12T13:31:15;24.60;99.90
14236;DHT22;7202;50.718;7.072;2022-09-12T13:33:47;24.60;99.90
14236;DHT22;7202;50.718;7.072;2022-09-12T13:36:30;24.60;99.90
14236;DHT22;7202;50.718;7.072;2022-09-12T13:39:12;24.60;99.90
14236;DHT22;7202;50.718;7.072;2022-09-12T13:44:41;24.60;99.90
14236;DHT22;7202;50.718;7.072;2022-09-12T13:47:16;24.60;99.90
14236;DHT22;7202;50.718;7.072;2022-09-12T13:49:48;24.50;99.90
14236;DHT22;7202;50.718;7.072;2022-09-12T13:52:19;24.60;99.90
14236;DHT22;7202;50.718;7.072;2022-09-12T13:54:51;24.60;99.90
14236;DHT22;7202;50.718;7.072;2022-09-12T13:57:31;24.60;99.90
14236;DHT22;7202;50.718;7.072;2022-09-12T14:00:05;24.60;99.90
14236;DHT22;7202;50.718;7.072;2022-09-12T14:02:39;24.70;99.90
14236;DHT22;7202;50.718;7.072;2022-09-12T14:05:12;24.70;99.90
14236;DHT22;7202;50.718;7.072;2022-09-12T14:07:50;24.70;99.90
14236;DHT22;7202;50.718;7.072;2022-09-12T14:10:26;24.70;99.90
14236;DHT22;7202;50.718;7.072;2022-09-12T14:12:55;24.70;99.90
14236;DHT22;7202;50.718;7.072;2022-09-12T14:15:27;24.70;99.90
14236;DHT22;7202;50.718;7.072;2022-09-12T14:17:59;24.80;99.90
14236;DHT22;7202;50.718;7.072;2022-09-12T14:20:29;24.80;99.90
14236;DHT22;7202;50.718;7.072;2022-09-12T14:23:02;24.80;99.90
14236;DHT22;7202;50.718;7.072;2022-09-12T14:25:35;24.70;99.90
14236;DHT22;7202;50.718;7.072;2022-09-12T14:28:05;24.80;99.90
14236;DHT22;7202;50.718;7.072;2022-09-12T14:30:36;24.70;99.90
14236;DHT22;7202;50.718;7.072;2022-09-12T14:33:17;24.70;99.90
14236;DHT22;7202;50.718;7.072;2022-09-12T14:35:47;24.70;99.90
14236;DHT22;7202;50.718;7.072;2022-09-12T14:38:21;24.70;99.90
14236;DHT22;7202;50.718;7.072;2022-09-12T14:40:57;24.80;99.90
14236;DHT22;7202;50.718;7.072;2022-09-12T14:43:28;24.80;99.90
14236;DHT22;7202;50.718;7.072;2022-09-12T14:46:00;24.80;99.90
14236;DHT22;7202;50.718;7.072;2022-09-12T14:48:34;24.70;99.90
14236;DHT22;7202;50.718;7.072;2022-09-12T14:51:04;24.70;99.90
14236;DHT22;7202;50.718;7.072;2022-09-12T14:53:34;24.70;99.90
14236;DHT22;7202;50.718;7.072;2022-09-12T14:56:08;24.60;99.90
14236;DHT22;7202;50.718;7.072;2022-09-12T14:58:38;24.60;99.90
14236;DHT22;7202;50.718;7.072;2022-09-12T15:01:26;24.60;99.90
14236;DHT22;7202;50.718;7.072;2022-09-12T15:03:56;24.60;99.90
14236;DHT22;7202;50.718;7.072;2022-09-12T15:06:27;24.60;99.90
14236;DHT22;7202;50.718;7.072;2022-09-12T15:08:57;24.50;99.90
14236;DHT22;7202;50.718;7.072;2022-09-12T15:11:27;24.50;99.90
14236;DHT22;7202;50.718;7.072;2022-09-12T15:13:55;24.50;99.90
14236;DHT22;7202;50.718;7.072;2022-09-12T15:16:24;24.50;99.90
14236;DHT22;7202;50.718;7.072;2022-09-12T15:18:52;24.50;99.90
14236;DHT22;7202;50.718;7.072;2022-09-12T15:21:22;24.40;99.90
14236;DHT22;7202;50.718;7.072;2022-09-12T15:23:51;24.40;99.90
14236;DHT22;7202;50.718;7.072;2022-09-12T15:26:21;24.30;99.90
14236;DHT22;7202;50.718;7.072;2022-09-12T15:28:50;24.30;99.90
14236;DHT22;7202;50.718;7.072;2022-09-12T15:31:23;24.30;99.90
14236;DHT22;7202;50.718;7.072;2022-09-12T15:33:52;24.20;99.90
14236;DHT22;7202;50.718;7.072;2022-09-12T15:36:23;24.20;99.90
14236;DHT22;7202;50.718;7.072;2022-09-12T15:38:53;24.20;99.90
14236;DHT22;7202;50.718;7.072;2022-09-12T15:41:24;24.20;99.90
14236;DHT22;7202;50.718;7.072;2022-09-12T15:43:53;24.20;99.90
14236;DHT22;7202;50.718;7.072;2022-09-12T15:46:23;24.10;99.90
14236;DHT22;7202;50.718;7.072;2022-09-12T15:48:51;24.10;99.90
14236;DHT22;7202;50.718;7.072;2022-09-12T15:51:20;24.10;99.90
14236;DHT22;7202;50.718;7.072;2022-09-12T15:53:50;24.10;99.90
14236;DHT22;7202;50.718;7.072;2022-09-12T15:56:20;24.10;99.90
14236;DHT22;7202;50.718;7.072;2022-09-12T15:58:49;24.10;99.90
14236;DHT22;7202;50.718;7.072;2022-09-12T16:01:27;24.00;99.90
14236;DHT22;7202;50.718;7.072;2022-09-12T16:03:56;24.00;99.90
14236;DHT22;7202;50.718;7.072;2022-09-12T16:06:25;24.00;99.90
14236;DHT22;7202;50.718;7.072;2022-09-12T16:09:02;23.90;99.90
14236;DHT22;7202;50.718;7.072;2022-09-12T16:11:31;23.90;99.90
14236;DHT22;7202;50.718;7.072;2022-09-12T16:14:00;23.90;99.90
14236;DHT22;7202;50.718;7.072;2022-09-12T16:16:30;23.80;99.90
14236;DHT22;7202;50.718;7.072;2022-09-12T16:18:58;23.80;99.90
14236;DHT22;7202;50.718;7.072;2022-09-12T16:21:27;23.80;99.90
14236;DHT22;7202;50.718;7.072;2022-09-12T16:23:55;23.80;99.90
14236;DHT22;7202;50.718;7.072;2022-09-12T16:26:25;23.70;99.90
14236;DHT22;7202;50.718;7.072;2022-09-12T16:28:54;23.70;99.90
14236;DHT22;7202;50.718;7.072;2022-09-12T16:31:23;23.60;99.90
14236;DHT22;7202;50.718;7.072;2022-09-12T16:33:53;23.60;99.90